createdAt,value
2022-12-04T00:01:25.949Z,832.05
2022-12-04T00:03:58.732Z,340.40
2022-12-04T00:06:26.937Z,1002.57
2022-12-04T00:08:55.342Z,700.72
2022-12-04T00:11:25.957Z,645.63
2022-12-04T00:13:53.913Z,896.63
2022-12-04T00:16:26.259Z,1091.80
2022-12-04T00:18:54.747Z,997.80
2022-12-04T00:21:24.798Z,993.78
2022-12-04T00:23:53.605Z,1047.03
2022-12-04T00:26:24.708Z,1190.53
2022-12-04T00:28:53.057Z,1328.57
2022-12-04T00:31:23.350Z,908.88
2022-12-04T00:33:51.104Z,343.88
2022-12-04T00:36:21.100Z,758.50
2022-12-04T00:38:48.939Z,325.95
2022-12-04T00:41:19.437Z,1110.53
2022-12-04T00:43:47.107Z,327.75
2022-12-04T00:46:15.216Z,516.78
2022-12-04T00:48:43.262Z,576.50
2022-12-04T00:51:23.614Z,496.35
2022-12-04T00:53:52.775Z,201.15
2022-12-04T00:56:27.924Z,904.60
2022-12-04T00:58:57.744Z,670.97
2022-12-04T01:01:26.465Z,811.55
2022-12-04T01:03:55.393Z,804.20
2022-12-04T01:06:29.307Z,760.30
2022-12-04T01:08:58.845Z,998.20
2022-12-04T01:11:28.207Z,1012.17
2022-12-04T01:13:57.138Z,918.42
2022-12-04T01:16:31.711Z,1210.13
2022-12-04T01:19:00.027Z,983.05
2022-12-04T01:21:27.683Z,1062.65
2022-12-04T01:23:55.386Z,1189.00
2022-12-04T01:26:23.186Z,1051.40
2022-12-04T01:28:50.796Z,951.72
2022-12-04T01:31:20.972Z,1099.47
2022-12-04T01:33:49.202Z,961.35
2022-12-04T01:36:22.957Z,753.10
2022-12-04T01:38:51.487Z,1004.72
2022-12-04T01:41:23.177Z,880.03
2022-12-04T01:44:15.293Z,863.45
2022-12-04T01:46:45.316Z,1131.97
2022-12-04T01:49:34.198Z,657.80
2022-12-04T01:52:07.433Z,1475.25
2022-12-04T01:54:40.128Z,1418.60
2022-12-04T01:57:13.338Z,1391.72
2022-12-04T01:59:45.846Z,1437.88
2022-12-04T02:02:17.359Z,1429.57
2022-12-04T02:04:45.154Z,1247.68
2022-12-04T02:07:12.746Z,1430.97
2022-12-04T02:09:42.342Z,1360.13
2022-12-04T02:12:50.462Z,1225.80
2022-12-04T02:16:02.388Z,1007.05
2022-12-04T02:18:47.598Z,1205.70
2022-12-04T02:21:37.548Z,501.40
2022-12-04T02:24:50.006Z,889.00
2022-12-04T02:27:39.549Z,970.80
2022-12-04T02:30:13.434Z,752.85
2022-12-04T02:32:47.108Z,1036.05
2022-12-04T02:38:23.696Z,506.50
2022-12-04T02:41:05.989Z,159.15
2022-12-04T02:43:40.418Z,1078.35
2022-12-04T02:46:22.835Z,1025.50
2022-12-04T02:48:53.573Z,622.10
2022-12-04T02:51:25.265Z,397.67
2022-12-04T02:53:58.278Z,477.40
2022-12-04T02:56:31.744Z,621.63
2022-12-04T02:59:04.515Z,853.35
2022-12-04T03:01:36.376Z,795.65
2022-12-04T03:04:27.463Z,752.55
2022-12-04T03:07:10.026Z,708.03
2022-12-04T03:09:49.837Z,886.10
2022-12-04T03:12:43.695Z,973.00
2022-12-04T03:15:38.016Z,224.00
2022-12-04T03:20:38.763Z,320.67
2022-12-04T03:23:18.053Z,260.42
2022-12-04T03:26:00.746Z,329.33
2022-12-04T03:28:38.788Z,315.00
2022-12-04T03:31:09.896Z,174.45
2022-12-04T03:33:47.826Z,304.48
2022-12-04T03:36:23.958Z,452.63
2022-12-04T03:39:03.127Z,387.77
2022-12-04T03:41:50.124Z,604.35
2022-12-04T03:44:30.020Z,275.88
2022-12-04T03:47:19.486Z,759.10
2022-12-04T03:50:10.293Z,367.45
2022-12-04T03:52:51.300Z,128.80
2022-12-04T03:55:27.494Z,238.82
2022-12-04T03:58:01.234Z,973.15
2022-12-04T04:00:31.007Z,595.65
2022-12-04T04:03:28.652Z,489.25
2022-12-04T04:06:06.050Z,300.33
2022-12-04T04:08:39.123Z,176.00
2022-12-04T04:11:27.896Z,285.02
2022-12-04T04:14:25.843Z,1114.43
2022-12-04T04:17:20.749Z,732.30
2022-12-04T04:20:11.111Z,593.65
2022-12-04T04:22:58.785Z,677.17
2022-12-04T04:25:28.176Z,1162.53
2022-12-04T04:27:58.419Z,1133.70
2022-12-04T04:30:29.667Z,1146.53
2022-12-04T04:33:06.389Z,1129.10
2022-12-04T04:36:02.926Z,1434.07
2022-12-04T04:38:56.007Z,1249.80
2022-12-04T04:41:32.953Z,1387.20
2022-12-04T04:44:21.403Z,1306.18
2022-12-04T04:46:55.197Z,1013.20
2022-12-04T04:49:25.838Z,736.75
2022-12-04T04:51:54.927Z,841.50
2022-12-04T04:54:23.877Z,1182.65
2022-12-04T04:56:51.338Z,1092.22
2022-12-04T04:59:18.848Z,629.53
2022-12-04T05:01:47.427Z,1286.47
2022-12-04T05:04:15.047Z,1496.82
2022-12-04T05:06:42.543Z,1098.82
2022-12-04T05:09:10.075Z,1005.35
2022-12-04T05:11:37.568Z,1234.35
2022-12-04T05:18:18.562Z,1082.28
2022-12-04T05:20:46.133Z,1384.18
2022-12-04T05:23:13.630Z,1288.90
2022-12-04T05:25:41.161Z,1357.22
2022-12-04T05:28:08.790Z,1481.38
2022-12-04T05:30:36.434Z,1421.47
2022-12-04T05:33:04.215Z,1396.30
2022-12-04T05:35:32.185Z,980.40
2022-12-04T05:37:59.794Z,1344.75
2022-12-04T05:40:27.298Z,1313.47
2022-12-04T05:42:54.845Z,1546.72
2022-12-04T05:45:22.365Z,1179.53
2022-12-04T05:47:49.954Z,1496.90
2022-12-04T05:50:17.476Z,1478.95
2022-12-04T05:52:45.016Z,1317.75
2022-12-04T05:55:12.564Z,560.40
2022-12-04T05:57:40.032Z,644.00
2022-12-04T06:00:08.279Z,313.15
2022-12-04T06:02:38.668Z,358.48
2022-12-04T06:05:06.463Z,207.57
2022-12-04T06:07:34.022Z,214.40
2022-12-04T06:10:01.540Z,170.77
2022-12-04T06:12:30.552Z,176.02
2022-12-04T06:14:58.263Z,157.82
2022-12-04T06:17:25.874Z,122.20
2022-12-04T06:19:54.023Z,123.43
2022-12-04T06:22:22.104Z,117.25
2022-12-04T06:24:49.614Z,112.65
2022-12-04T06:27:32.493Z,105.63
2022-12-04T06:30:00.063Z,96.10
2022-12-04T06:32:27.723Z,100.53
2022-12-04T06:34:55.735Z,97.00
2022-12-04T06:37:25.446Z,91.50
2022-12-04T06:39:53.224Z,78.10
2022-12-04T06:42:20.825Z,88.28
2022-12-04T06:44:49.583Z,82.90
2022-12-04T06:47:17.112Z,84.72
2022-12-04T06:49:46.285Z,89.22
2022-12-04T06:52:13.812Z,85.68
2022-12-04T06:54:41.410Z,79.70
2022-12-04T06:57:08.903Z,119.30
2022-12-04T06:59:36.575Z,82.90
2022-12-04T07:02:04.130Z,79.30
2022-12-04T07:04:31.629Z,69.75
2022-12-04T07:06:59.159Z,68.93
2022-12-04T07:09:26.732Z,70.93
2022-12-04T07:11:55.205Z,75.32
2022-12-04T07:14:22.704Z,72.25
2022-12-04T07:16:50.359Z,73.65
2022-12-04T07:19:17.870Z,77.20
2022-12-04T07:21:45.473Z,75.35
2022-12-04T07:24:17.824Z,74.80
2022-12-04T07:26:46.262Z,79.45
2022-12-04T07:29:13.829Z,85.72
2022-12-04T07:31:41.508Z,85.35
2022-12-04T07:34:09.144Z,72.20
2022-12-04T07:36:39.378Z,81.68
2022-12-04T07:39:07.206Z,74.28
2022-12-04T07:41:35.233Z,79.20
2022-12-04T07:44:07.403Z,72.85
2022-12-04T07:46:34.951Z,74.93
2022-12-04T07:49:02.582Z,75.63
2022-12-04T07:51:30.381Z,72.28
2022-12-04T07:54:03.158Z,72.53
2022-12-04T07:56:32.413Z,75.65
2022-12-04T07:59:00.701Z,74.10
2022-12-04T08:01:28.499Z,67.95
2022-12-04T08:03:58.561Z,66.13
2022-12-04T08:06:28.544Z,59.35
2022-12-04T08:08:57.613Z,63.78
2022-12-04T08:11:27.451Z,70.82
2022-12-04T08:14:01.010Z,64.82
2022-12-04T08:16:31.578Z,67.05
2022-12-04T08:19:00.696Z,61.80
2022-12-04T08:21:31.759Z,62.30
2022-12-04T08:24:01.138Z,56.20
2022-12-04T08:26:31.722Z,58.65
2022-12-04T08:29:01.535Z,62.53
2022-12-04T08:31:31.112Z,53.53
2022-12-04T08:34:00.539Z,64.32
2022-12-04T08:36:28.421Z,57.75
2022-12-04T08:38:56.491Z,55.30
2022-12-04T08:41:26.293Z,56.45
2022-12-04T08:43:55.459Z,56.67
2022-12-04T08:46:24.272Z,56.38
2022-12-04T08:48:52.129Z,54.25
2022-12-04T08:51:28.959Z,52.75
2022-12-04T08:54:01.298Z,54.95
2022-12-04T08:56:30.495Z,58.47
2022-12-04T08:58:59.115Z,54.20
2022-12-04T09:01:27.784Z,51.58
2022-12-04T09:03:55.682Z,50.90
2022-12-04T09:06:24.061Z,53.72
2022-12-04T09:08:56.798Z,52.30
2022-12-04T09:11:26.929Z,50.78
2022-12-04T09:13:56.063Z,53.53
2022-12-04T09:16:25.281Z,50.45
2022-12-04T09:18:53.260Z,51.20
2022-12-04T09:21:22.192Z,56.55
2022-12-04T09:23:50.718Z,53.40
2022-12-04T09:26:27.361Z,52.90
2022-12-04T09:28:56.361Z,55.40
2022-12-04T09:31:24.821Z,51.83
2022-12-04T09:33:52.990Z,53.55
2022-12-04T09:36:21.110Z,53.17
2022-12-04T09:38:51.317Z,57.13
2022-12-04T09:41:37.122Z,49.97
2022-12-04T09:44:48.751Z,51.30
2022-12-04T09:47:37.712Z,56.53
2022-12-04T09:50:20.922Z,58.88
2022-12-04T09:53:01.556Z,56.13
2022-12-04T09:55:52.203Z,59.65
2022-12-04T09:58:28.881Z,55.70
2022-12-04T10:00:58.743Z,52.20
2022-12-04T10:03:29.919Z,53.53
2022-12-04T10:06:18.451Z,60.05
2022-12-04T10:08:50.733Z,56.97
2022-12-04T10:11:26.593Z,55.83
2022-12-04T10:14:20.922Z,53.72
2022-12-04T10:17:03.616Z,60.60
2022-12-04T10:19:38.842Z,60.50
2022-12-04T10:22:42.887Z,61.67
2022-12-04T10:25:23.226Z,61.35
2022-12-04T10:28:09.226Z,59.38
2022-12-04T10:30:41.311Z,58.08
2022-12-04T10:33:40.019Z,62.10
2022-12-04T10:36:14.653Z,58.00
2022-12-04T10:38:56.671Z,64.47
2022-12-04T10:41:40.777Z,54.25
2022-12-04T10:46:45.710Z,62.03
2022-12-04T10:49:21.940Z,58.78
2022-12-04T10:51:49.961Z,58.10
2022-12-04T10:54:27.445Z,62.08
2022-12-04T10:56:54.980Z,59.10
2022-12-04T10:59:23.289Z,60.42
2022-12-04T11:01:52.861Z,54.72
2022-12-04T11:04:26.143Z,54.67
2022-12-04T11:07:49.062Z,57.72
2022-12-04T11:10:38.919Z,58.40
2022-12-04T11:13:15.835Z,59.85
2022-12-04T11:15:52.619Z,57.15
2022-12-04T11:18:32.358Z,65.90
2022-12-04T11:21:03.848Z,60.60
2022-12-04T11:23:51.534Z,65.85
2022-12-04T11:26:33.988Z,63.53
2022-12-04T11:29:02.569Z,59.75
2022-12-04T11:31:31.498Z,58.00
2022-12-04T11:34:05.180Z,61.55
2022-12-04T11:36:36.898Z,63.67
2022-12-04T11:39:07.491Z,65.25
2022-12-04T11:41:35.166Z,72.85
2022-12-04T11:44:02.929Z,60.85
2022-12-04T11:46:34.170Z,63.38
2022-12-04T11:49:03.599Z,63.83
2022-12-04T11:51:43.129Z,60.85
2022-12-04T11:54:32.719Z,64.32
2022-12-04T11:57:24.436Z,58.85
2022-12-04T12:00:17.760Z,60.47
2022-12-04T12:03:16.073Z,61.53
2022-12-04T12:05:55.567Z,61.42
2022-12-04T12:09:01.719Z,59.25
2022-12-04T12:11:41.270Z,56.10
2022-12-04T12:14:43.207Z,60.90
2022-12-04T12:17:25.847Z,59.35
2022-12-04T12:20:30.415Z,63.58
2022-12-04T12:22:57.891Z,62.75
2022-12-04T12:25:53.457Z,63.63
2022-12-04T12:28:46.760Z,60.35
2022-12-04T12:31:39.337Z,62.25
2022-12-04T12:34:34.720Z,59.33
2022-12-04T12:37:11.068Z,65.88
2022-12-04T12:40:15.356Z,65.45
2022-12-04T12:42:58.382Z,55.75
2022-12-04T12:46:14.358Z,64.82
2022-12-04T12:48:47.168Z,65.40
2022-12-04T12:51:30.710Z,61.97
2022-12-04T12:54:23.448Z,62.25
2022-12-04T12:56:56.633Z,59.25
2022-12-04T12:59:28.284Z,59.33
2022-12-04T13:02:20.121Z,58.20
2022-12-04T13:04:54.219Z,63.33
2022-12-04T13:07:40.764Z,62.50
2022-12-04T13:10:24.927Z,62.45
2022-12-04T13:15:44.903Z,62.58
2022-12-04T13:18:27.699Z,62.97
2022-12-04T13:20:59.386Z,66.50
2022-12-04T13:24:24.097Z,59.90
2022-12-04T13:27:20.825Z,57.92
2022-12-04T13:30:03.225Z,63.58
2022-12-04T13:32:55.567Z,62.22
2022-12-04T13:35:51.877Z,61.28
2022-12-04T13:38:57.861Z,57.95
2022-12-04T13:41:27.925Z,58.60
2022-12-04T13:43:59.032Z,62.53
2022-12-04T13:49:27.763Z,61.35
2022-12-04T13:51:57.323Z,63.33
2022-12-04T13:54:31.340Z,64.50
2022-12-04T13:57:15.801Z,59.47
2022-12-04T13:59:44.289Z,58.33
2022-12-04T14:02:23.196Z,57.22
2022-12-04T14:05:01.366Z,54.45
2022-12-04T14:07:37.791Z,59.53
2022-12-04T14:10:27.027Z,54.15
2022-12-04T14:13:07.476Z,58.50
2022-12-04T14:15:39.685Z,56.35
2022-12-04T14:18:20.845Z,62.10
2022-12-04T14:21:02.223Z,53.40
2022-12-04T14:23:39.645Z,51.17
2022-12-04T14:27:03.685Z,55.85
2022-12-04T14:29:47.698Z,51.67
2022-12-04T14:32:23.558Z,50.47
2022-12-04T14:34:51.266Z,52.60
2022-12-04T14:37:31.086Z,55.38
2022-12-04T14:40:00.348Z,54.13
2022-12-04T14:42:40.599Z,52.60
2022-12-04T14:45:28.101Z,51.28
2022-12-04T14:48:23.437Z,53.00
2022-12-04T14:51:09.382Z,59.63
2022-12-04T14:53:57.566Z,58.28
2022-12-04T14:57:17.596Z,55.25
2022-12-04T14:59:49.305Z,57.15
2022-12-04T15:02:41.923Z,53.95
2022-12-04T15:05:22.976Z,55.80
2022-12-04T15:07:53.839Z,54.03
2022-12-04T15:10:43.659Z,51.45
2022-12-04T15:13:16.024Z,55.50
2022-12-04T15:15:47.264Z,54.13
2022-12-04T15:18:17.166Z,54.28
2022-12-04T15:20:51.356Z,51.58
2022-12-04T15:23:28.262Z,53.13
2022-12-04T15:25:58.372Z,51.15
2022-12-04T15:28:48.346Z,51.58
2022-12-04T15:31:23.635Z,50.60
2022-12-04T15:33:56.566Z,52.75
2022-12-04T15:36:26.995Z,48.30
2022-12-04T15:38:54.776Z,48.95
2022-12-04T15:41:31.530Z,45.75
2022-12-04T15:43:59.765Z,45.92
2022-12-04T15:46:35.914Z,44.85
2022-12-04T15:49:25.007Z,50.35
2022-12-04T15:52:05.235Z,49.72
2022-12-04T15:54:36.365Z,47.05
2022-12-04T15:57:28.459Z,47.20
2022-12-04T16:00:01.299Z,47.53
2022-12-04T16:02:32.145Z,45.53
2022-12-04T16:05:22.631Z,51.13
2022-12-04T16:08:02.943Z,47.10
2022-12-04T16:10:34.232Z,45.03
2022-12-04T16:13:04.681Z,48.10
2022-12-04T16:15:41.664Z,48.40
2022-12-04T16:18:14.334Z,44.67
2022-12-04T16:20:41.927Z,44.38
2022-12-04T16:23:09.836Z,46.30
2022-12-04T16:25:37.347Z,42.72
2022-12-04T16:28:05.086Z,41.17
2022-12-04T16:30:35.013Z,42.35
2022-12-04T16:33:02.671Z,45.03
2022-12-04T16:35:31.642Z,46.67
2022-12-04T16:37:59.158Z,44.05
2022-12-04T16:40:26.744Z,40.10
2022-12-04T16:42:54.171Z,42.30
2022-12-04T16:45:35.469Z,40.53
2022-12-04T16:48:03.025Z,37.97
2022-12-04T16:50:30.543Z,42.78
2022-12-04T16:52:58.454Z,35.85
2022-12-04T16:55:35.838Z,37.85
2022-12-04T16:58:04.676Z,35.28
2022-12-04T17:00:32.464Z,39.40
2022-12-04T17:03:02.135Z,35.20
2022-12-04T17:05:32.152Z,38.75
2022-12-04T17:08:00.116Z,34.80
2022-12-04T17:10:29.540Z,38.33
2022-12-04T17:12:57.083Z,35.75
2022-12-04T17:15:24.905Z,34.65
2022-12-04T17:17:52.415Z,35.30
2022-12-04T17:20:21.652Z,34.90
2022-12-04T17:22:49.587Z,35.47
2022-12-04T17:25:18.429Z,34.03
2022-12-04T17:27:46.334Z,36.50
2022-12-04T17:30:14.647Z,34.67
2022-12-04T17:32:42.727Z,31.90
2022-12-04T17:35:12.795Z,33.35
2022-12-04T17:37:40.698Z,30.45
2022-12-04T17:40:14.427Z,34.15
2022-12-04T17:45:11.665Z,32.67
2022-12-04T17:47:39.220Z,32.13
2022-12-04T17:50:07.550Z,32.90
2022-12-04T17:52:35.196Z,32.95
2022-12-04T17:55:03.064Z,31.65
2022-12-04T17:57:30.533Z,26.73
2022-12-04T17:59:58.054Z,35.20
2022-12-04T18:02:25.590Z,31.92
2022-12-04T18:04:55.551Z,32.22
2022-12-04T18:07:23.335Z,32.47
2022-12-04T18:09:50.813Z,32.85
2022-12-04T18:12:18.297Z,30.95
2022-12-04T18:14:46.493Z,33.92
2022-12-04T18:17:14.106Z,30.02
2022-12-04T18:19:41.773Z,31.17
2022-12-04T18:22:09.426Z,29.08
2022-12-04T18:24:37.004Z,30.75
2022-12-04T18:27:05.602Z,31.23
2022-12-04T18:29:33.151Z,28.08
2022-12-04T18:32:00.942Z,28.92
2022-12-04T18:34:28.585Z,28.83
2022-12-04T18:36:56.138Z,28.63
2022-12-04T18:39:25.172Z,31.77
2022-12-04T18:41:56.673Z,29.20
2022-12-04T18:44:25.074Z,28.02
2022-12-04T18:46:53.691Z,29.45
2022-12-04T18:49:21.267Z,32.22
2022-12-04T18:51:50.270Z,30.63
2022-12-04T18:54:21.183Z,33.20
2022-12-04T18:56:49.352Z,28.17
2022-12-04T18:59:19.937Z,32.75
2022-12-04T19:01:50.245Z,33.08
2022-12-04T19:04:19.668Z,31.50
2022-12-04T19:06:55.011Z,29.35
2022-12-04T19:09:47.353Z,32.53
2022-12-04T19:12:13.762Z,32.92
2022-12-04T19:14:41.346Z,34.42
2022-12-04T19:17:09.250Z,31.60
2022-12-04T19:19:37.116Z,30.48
2022-12-04T19:22:04.689Z,30.23
2022-12-04T19:24:32.469Z,32.40
2022-12-04T19:27:01.847Z,31.73
2022-12-04T19:29:29.572Z,34.33
2022-12-04T19:31:59.537Z,32.05
2022-12-04T19:34:27.449Z,34.33
2022-12-04T19:36:55.399Z,29.95
2022-12-04T19:39:22.968Z,29.05
2022-12-04T19:41:50.599Z,32.13
2022-12-04T19:47:05.833Z,30.83
2022-12-04T19:49:33.421Z,32.75
2022-12-04T19:52:00.954Z,32.67
2022-12-04T19:54:30.192Z,31.80
2022-12-04T19:56:57.714Z,32.00
2022-12-04T19:59:25.227Z,31.50
2022-12-04T20:01:52.922Z,30.05
2022-12-04T20:04:20.751Z,31.98
2022-12-04T20:06:48.313Z,30.20
2022-12-04T20:09:21.541Z,27.85
2022-12-04T20:11:49.342Z,27.67
2022-12-04T20:14:17.088Z,29.65
2022-12-04T20:16:45.001Z,31.80
2022-12-04T20:19:15.261Z,29.58
2022-12-04T20:21:43.822Z,33.63
2022-12-04T20:24:15.080Z,29.05
2022-12-04T20:26:45.004Z,30.52
2022-12-04T20:29:15.010Z,29.98
2022-12-04T20:31:44.653Z,31.55
2022-12-04T20:34:15.461Z,31.58
2022-12-04T20:36:45.264Z,32.33
2022-12-04T20:39:14.397Z,32.47
2022-12-04T20:41:42.724Z,30.42
2022-12-04T20:44:14.402Z,31.52
2022-12-04T20:46:42.806Z,31.45
2022-12-04T20:49:21.096Z,31.90
2022-12-04T20:51:51.072Z,31.98
2022-12-04T20:54:20.340Z,31.55
2022-12-04T20:56:49.239Z,30.85
2022-12-04T20:59:19.226Z,31.83
2022-12-04T21:01:49.111Z,29.77
2022-12-04T21:04:18.176Z,31.77
2022-12-04T21:06:47.135Z,29.90
2022-12-04T21:09:20.381Z,29.73
2022-12-04T21:11:55.512Z,32.45
2022-12-04T21:14:49.230Z,28.45
2022-12-04T21:17:19.429Z,26.83
2022-12-04T21:19:49.365Z,31.20
2022-12-04T21:22:18.749Z,26.77
2022-12-04T21:24:46.362Z,27.65
2022-12-04T21:27:20.420Z,26.00
2022-12-04T21:29:49.139Z,27.02
2022-12-04T21:32:17.839Z,26.48
2022-12-04T21:34:45.462Z,24.63
2022-12-04T21:37:13.300Z,25.23
2022-12-04T21:39:41.987Z,23.77
2022-12-04T21:42:28.198Z,20.08
2022-12-04T21:44:55.763Z,22.45
2022-12-04T21:47:23.370Z,20.00
2022-12-04T21:49:50.938Z,20.70
2022-12-04T21:52:19.381Z,21.00
2022-12-04T21:54:54.100Z,21.75
2022-12-04T21:57:22.507Z,19.20
2022-12-04T21:59:53.057Z,21.42
2022-12-04T22:02:20.892Z,21.92
2022-12-04T22:04:48.474Z,23.67
2022-12-04T22:07:15.986Z,22.08
2022-12-04T22:09:43.661Z,21.15
2022-12-04T22:12:26.830Z,22.25
2022-12-04T22:14:58.636Z,20.88
2022-12-04T22:17:29.511Z,19.83
2022-12-04T22:19:57.410Z,21.73
2022-12-04T22:22:25.076Z,19.17
2022-12-04T22:24:52.585Z,23.45
2022-12-04T22:27:20.041Z,21.77
2022-12-04T22:29:50.855Z,23.90
2022-12-04T22:32:29.740Z,21.77
2022-12-04T22:34:57.280Z,22.83
2022-12-04T22:37:25.180Z,27.42
2022-12-04T22:39:52.628Z,24.80
2022-12-04T22:42:20.170Z,28.85
2022-12-04T22:44:47.971Z,28.77
2022-12-04T22:47:15.501Z,28.27
2022-12-04T22:49:43.041Z,27.35
2022-12-04T22:52:10.781Z,28.80
2022-12-04T22:54:38.332Z,32.47
2022-12-04T22:57:05.811Z,30.92
2022-12-04T22:59:34.104Z,35.15
2022-12-04T23:02:01.651Z,28.70
2022-12-04T23:04:29.666Z,32.05
2022-12-04T23:06:57.210Z,30.90
2022-12-04T23:09:26.320Z,33.30
2022-12-04T23:11:55.056Z,31.75
2022-12-04T23:14:23.459Z,30.45
2022-12-04T23:16:51.238Z,31.92
2022-12-04T23:19:20.140Z,35.22
2022-12-04T23:21:55.031Z,31.08
2022-12-04T23:24:25.140Z,31.83
2022-12-04T23:26:52.811Z,33.97
2022-12-04T23:29:51.492Z,35.72
2022-12-04T23:32:08.103Z,35.35
2022-12-04T23:34:35.670Z,33.47
2022-12-04T23:37:03.129Z,31.73
2022-12-04T23:39:30.649Z,31.90
2022-12-04T23:41:58.108Z,30.20
2022-12-04T23:44:25.793Z,31.15
2022-12-04T23:46:53.428Z,31.27
2022-12-04T23:49:21.030Z,33.55
2022-12-04T23:51:48.499Z,34.63
2022-12-04T23:54:16.002Z,31.88
2022-12-04T23:56:44.160Z,31.20
2022-12-04T23:59:11.699Z,33.40
